createdAt,value
2018-01-23T00:02:40.357Z,2.50
2018-01-23T00:05:50.941Z,2.50
2018-01-23T00:09:01.699Z,2.50
2018-01-23T00:12:11.855Z,2.50
2018-01-23T00:15:21.730Z,2.50
2018-01-23T00:18:32.938Z,2.50
2018-01-23T00:21:44.390Z,2.50
2018-01-23T00:24:54.084Z,2.50
2018-01-23T00:28:03.818Z,2.60
2018-01-23T00:31:13.545Z,2.60
2018-01-23T00:34:25.202Z,2.60
2018-01-23T00:37:36.975Z,2.70
2018-01-23T00:40:47.500Z,2.60
2018-01-23T00:43:57.775Z,2.70
2018-01-23T00:47:07.649Z,2.70
2018-01-23T00:50:17.530Z,2.70
2018-01-23T00:53:27.351Z,2.70
2018-01-23T00:56:37.114Z,2.70
2018-01-23T00:59:47.054Z,2.70
2018-01-23T01:02:56.898Z,2.70
2018-01-23T01:06:07.511Z,2.70
2018-01-23T01:09:17.651Z,2.70
2018-01-23T01:12:28.435Z,2.60
2018-01-23T01:15:38.556Z,2.60
2018-01-23T01:18:49.168Z,2.70
2018-01-23T01:22:00.129Z,2.70
2018-01-23T01:25:10.806Z,2.70
2018-01-23T01:28:21.768Z,2.70
2018-01-23T01:31:32.108Z,2.70
2018-01-23T01:34:43.389Z,2.70
2018-01-23T01:37:53.183Z,2.70
2018-01-23T01:41:02.909Z,2.70
2018-01-23T01:44:13.342Z,2.70
2018-01-23T01:47:23.279Z,2.70
2018-01-23T01:50:32.972Z,2.70
2018-01-23T01:53:43.182Z,2.70
2018-01-23T01:56:54.867Z,2.70
2018-01-23T02:00:04.349Z,2.70
2018-01-23T02:03:14.598Z,2.70
2018-01-23T02:06:24.639Z,2.70
2018-01-23T02:09:35.322Z,2.70
2018-01-23T02:12:45.326Z,2.70
2018-01-23T02:15:55.281Z,2.80
2018-01-23T02:19:04.993Z,2.70
2018-01-23T02:22:15.963Z,2.80
2018-01-23T02:25:25.776Z,2.70
2018-01-23T02:28:35.594Z,2.70
2018-01-23T02:31:46.236Z,2.70
2018-01-23T02:34:56.699Z,2.70
2018-01-23T02:38:06.693Z,2.70
2018-01-23T02:41:16.808Z,2.80
2018-01-23T02:44:27.954Z,2.80
2018-01-23T02:50:49.454Z,2.80
2018-01-23T02:54:00.330Z,2.80
2018-01-23T02:57:10.387Z,2.80
2018-01-23T03:00:21.020Z,2.90
2018-01-23T03:03:31.356Z,2.80
2018-01-23T03:06:41.898Z,2.90
2018-01-23T03:09:51.876Z,2.90
2018-01-23T03:13:02.624Z,2.90
2018-01-23T03:16:12.825Z,2.90
2018-01-23T03:19:22.372Z,2.90
2018-01-23T03:22:32.406Z,2.90
2018-01-23T03:25:42.485Z,2.90
2018-01-23T03:28:52.441Z,2.90
2018-01-23T03:32:02.403Z,2.90
2018-01-23T03:35:13.918Z,3.00
2018-01-23T03:38:24.935Z,2.90
2018-01-23T03:41:36.284Z,2.90
2018-01-23T03:44:47.638Z,3.00
2018-01-23T03:47:57.665Z,3.00
2018-01-23T03:51:08.231Z,3.00
2018-01-23T03:54:18.785Z,3.00
2018-01-23T03:57:28.670Z,2.90
2018-01-23T04:00:38.644Z,2.90
2018-01-23T04:03:48.643Z,2.90
2018-01-23T04:06:58.463Z,3.00
2018-01-23T04:10:08.442Z,3.00
2018-01-23T04:13:18.204Z,3.00
2018-01-23T04:16:28.880Z,3.00
2018-01-23T04:19:38.831Z,3.00
2018-01-23T04:22:48.762Z,3.00
2018-01-23T04:25:58.706Z,3.00
2018-01-23T04:29:08.661Z,3.00
2018-01-23T04:32:18.587Z,3.00
2018-01-23T04:35:28.422Z,3.00
2018-01-23T04:38:38.229Z,3.00
2018-01-23T04:41:48.124Z,3.00
2018-01-23T04:44:58.235Z,3.00
2018-01-23T04:48:07.967Z,3.00
2018-01-23T04:51:18.734Z,3.00
2018-01-23T04:54:28.994Z,3.00
2018-01-23T04:57:39.382Z,3.00
2018-01-23T05:00:50.175Z,3.00
2018-01-23T05:04:00.637Z,2.90
2018-01-23T05:07:10.990Z,2.90
2018-01-23T05:10:21.091Z,2.90
2018-01-23T05:13:32.570Z,2.90
2018-01-23T05:16:43.115Z,2.90
2018-01-23T05:19:53.089Z,2.90
2018-01-23T05:23:03.634Z,2.90
2018-01-23T05:26:14.196Z,2.90
2018-01-23T05:29:24.385Z,2.90
2018-01-23T05:32:34.519Z,2.90
2018-01-23T05:35:44.535Z,2.90
2018-01-23T05:38:54.480Z,2.90
2018-01-23T05:42:04.329Z,2.90
2018-01-23T05:45:14.189Z,2.90
2018-01-23T05:48:24.088Z,2.90
2018-01-23T05:51:34.162Z,2.90
2018-01-23T05:54:43.878Z,2.90
2018-01-23T05:57:54.828Z,2.90
2018-01-23T06:01:05.446Z,2.90
2018-01-23T06:04:15.576Z,2.90
2018-01-23T06:07:25.411Z,2.80
2018-01-23T06:10:35.042Z,2.90
2018-01-23T06:13:45.140Z,2.90
2018-01-23T06:16:54.901Z,2.90
2018-01-23T06:20:06.223Z,2.90
2018-01-23T06:23:16.026Z,2.90
2018-01-23T06:26:26.524Z,2.90
2018-01-23T06:29:36.474Z,2.90
2018-01-23T06:32:46.467Z,2.90
2018-01-23T06:35:56.705Z,2.90
2018-01-23T06:39:07.311Z,2.90
2018-01-23T06:42:17.666Z,2.90
2018-01-23T06:45:27.540Z,3.00
2018-01-23T06:48:37.398Z,3.00
2018-01-23T06:51:47.464Z,3.00
2018-01-23T06:54:57.250Z,3.00
2018-01-23T06:58:07.028Z,3.00
2018-01-23T07:01:17.060Z,3.00
2018-01-23T07:04:26.858Z,3.00
2018-01-23T07:07:36.636Z,3.10
2018-01-23T07:10:46.764Z,3.10
2018-01-23T07:13:56.638Z,3.00
2018-01-23T07:17:07.621Z,3.00
2018-01-23T07:20:17.317Z,3.00
2018-01-23T07:23:27.552Z,3.00
2018-01-23T07:26:37.621Z,3.00
2018-01-23T07:29:47.970Z,3.00
2018-01-23T07:32:58.261Z,2.90
2018-01-23T07:36:08.725Z,2.90
2018-01-23T07:39:20.513Z,3.00
2018-01-23T07:42:32.025Z,2.90
2018-01-23T07:45:41.937Z,2.90
2018-01-23T07:48:52.126Z,2.90
2018-01-23T07:52:01.917Z,2.90
2018-01-23T07:55:12.407Z,2.90
2018-01-23T07:58:23.164Z,2.90
2018-01-23T08:01:34.291Z,2.90
2018-01-23T08:04:43.966Z,2.90
2018-01-23T08:07:53.910Z,2.90
2018-01-23T08:11:03.711Z,2.90
2018-01-23T08:14:13.630Z,3.00
2018-01-23T08:17:23.523Z,3.00
2018-01-23T08:20:33.510Z,3.00
2018-01-23T08:23:43.505Z,3.00
2018-01-23T08:26:53.568Z,3.00
2018-01-23T08:30:03.492Z,3.00
2018-01-23T08:33:13.546Z,3.10
2018-01-23T08:36:23.838Z,3.10
2018-01-23T08:39:34.005Z,3.10
2018-01-23T08:42:44.370Z,3.10
2018-01-23T08:45:54.229Z,3.20
2018-01-23T08:49:04.482Z,3.20
2018-01-23T08:52:14.430Z,3.20
2018-01-23T08:55:24.247Z,3.20
2018-01-23T08:58:34.611Z,3.20
2018-01-23T09:01:44.491Z,3.30
2018-01-23T09:04:54.621Z,3.30
2018-01-23T09:08:04.166Z,3.30
2018-01-23T09:11:14.025Z,3.30
2018-01-23T09:14:24.604Z,3.30
2018-01-23T09:17:35.962Z,3.30
2018-01-23T09:20:45.659Z,3.30
2018-01-23T09:23:55.574Z,3.30
2018-01-23T09:27:06.372Z,3.30
2018-01-23T09:30:17.520Z,3.30
2018-01-23T09:33:27.462Z,3.30
2018-01-23T09:36:38.105Z,3.30
2018-01-23T09:39:48.317Z,3.30
2018-01-23T09:42:58.326Z,3.30
2018-01-23T09:46:08.225Z,3.30
2018-01-23T09:49:18.604Z,3.30
2018-01-23T09:52:29.194Z,3.30
2018-01-23T09:55:39.626Z,3.30
2018-01-23T09:58:49.954Z,3.30
2018-01-23T10:02:00.964Z,3.40
2018-01-23T10:05:10.886Z,3.40
2018-01-23T10:08:22.371Z,3.40
2018-01-23T10:11:32.353Z,3.40
2018-01-23T10:14:42.817Z,3.40
2018-01-23T10:17:53.354Z,3.40
2018-01-23T10:21:03.370Z,3.40
2018-01-23T10:24:13.043Z,3.40
2018-01-23T10:27:22.911Z,3.40
2018-01-23T10:30:32.866Z,3.50
2018-01-23T10:33:42.839Z,3.50
2018-01-23T10:36:53.507Z,3.90
2018-01-23T10:40:04.030Z,4.10
2018-01-23T10:43:14.359Z,4.00
2018-01-23T10:46:24.246Z,4.10
2018-01-23T10:49:34.237Z,4.10
2018-01-23T10:52:43.729Z,4.30
2018-01-23T10:55:53.835Z,4.30
2018-01-23T10:59:04.106Z,4.40
2018-01-23T11:02:14.099Z,4.50
2018-01-23T11:05:24.533Z,4.40
2018-01-23T11:08:35.475Z,4.70
2018-01-23T11:11:45.935Z,4.60
2018-01-23T11:14:56.514Z,4.60
2018-01-23T11:18:06.651Z,4.60
2018-01-23T11:21:16.349Z,4.80
2018-01-23T11:24:26.499Z,4.90
2018-01-23T11:27:36.963Z,4.90
2018-01-23T11:30:46.940Z,5.00
2018-01-23T11:34:04.327Z,5.00
2018-01-23T11:37:14.709Z,4.90
2018-01-23T11:40:24.579Z,5.00
2018-01-23T11:43:34.230Z,5.10
2018-01-23T11:46:44.218Z,5.00
2018-01-23T11:49:54.811Z,4.90
2018-01-23T11:53:04.902Z,4.90
2018-01-23T11:56:15.547Z,4.90
2018-01-23T11:59:25.493Z,4.90
2018-01-23T12:02:35.474Z,4.90
2018-01-23T12:05:45.526Z,4.80
2018-01-23T12:08:55.659Z,4.70
2018-01-23T12:12:05.816Z,4.80
2018-01-23T12:15:16.922Z,4.80
2018-01-23T12:18:27.541Z,4.80
2018-01-23T12:21:37.434Z,4.60
2018-01-23T12:24:48.223Z,4.50
2018-01-23T12:27:57.947Z,4.50
2018-01-23T12:31:09.296Z,4.50
2018-01-23T12:34:19.534Z,4.50
2018-01-23T12:37:29.475Z,4.50
2018-01-23T12:40:40.049Z,4.50
2018-01-23T12:43:49.987Z,4.50
2018-01-23T12:46:59.926Z,4.50
2018-01-23T12:50:09.846Z,4.60
2018-01-23T12:53:19.706Z,4.60
2018-01-23T12:56:29.686Z,4.60
2018-01-23T12:59:39.567Z,4.60
2018-01-23T13:02:49.393Z,4.70
2018-01-23T13:05:59.399Z,4.70
2018-01-23T13:09:09.894Z,5.00
2018-01-23T13:12:20.167Z,5.00
2018-01-23T13:15:30.030Z,5.00
2018-01-23T13:18:40.697Z,5.10
2018-01-23T13:21:51.240Z,5.10
2018-01-23T13:25:01.254Z,5.20
2018-01-23T13:28:11.043Z,5.30
2018-01-23T13:31:21.278Z,5.20
2018-01-23T13:34:31.923Z,5.20
2018-01-23T13:37:43.244Z,5.40
2018-01-23T13:40:54.276Z,5.40
2018-01-23T13:44:04.571Z,5.40
2018-01-23T13:47:15.146Z,5.40
2018-01-23T13:50:24.923Z,5.40
2018-01-23T13:53:35.159Z,5.30
2018-01-23T13:56:45.085Z,5.50
2018-01-23T13:59:54.830Z,5.30
2018-01-23T14:03:04.754Z,5.40
2018-01-23T14:06:16.130Z,5.40
2018-01-23T14:09:26.746Z,5.30
2018-01-23T14:12:36.622Z,5.40
2018-01-23T14:15:46.530Z,5.30
2018-01-23T14:18:57.251Z,5.30
2018-01-23T14:22:07.168Z,5.30
2018-01-23T14:25:17.767Z,5.20
2018-01-23T14:28:27.969Z,5.20
2018-01-23T14:31:38.522Z,5.20
2018-01-23T14:34:48.860Z,5.20
2018-01-23T14:37:59.010Z,5.10
2018-01-23T14:41:08.967Z,5.20
2018-01-23T14:44:19.077Z,5.00
2018-01-23T14:47:29.722Z,4.90
2018-01-23T14:50:40.222Z,5.10
2018-01-23T14:53:50.026Z,5.00
2018-01-23T14:56:59.826Z,5.10
2018-01-23T15:00:10.379Z,5.00
2018-01-23T15:03:20.314Z,5.00
2018-01-23T15:06:30.372Z,4.90
2018-01-23T15:09:40.967Z,4.90
2018-01-23T15:12:51.101Z,4.90
2018-01-23T15:16:00.982Z,4.90
2018-01-23T15:19:10.924Z,4.90
2018-01-23T15:22:20.746Z,4.90
2018-01-23T15:25:30.772Z,4.90
2018-01-23T15:28:40.693Z,4.90
2018-01-23T15:31:51.264Z,4.90
2018-01-23T15:35:01.267Z,4.80
2018-01-23T15:38:12.103Z,4.90
2018-01-23T15:41:23.227Z,5.00
2018-01-23T15:44:33.935Z,4.90
2018-01-23T15:47:44.502Z,4.90
2018-01-23T15:50:54.761Z,4.80
2018-01-23T15:54:05.076Z,4.70
2018-01-23T15:57:15.434Z,4.70
2018-01-23T16:00:26.002Z,4.70
2018-01-23T16:03:36.332Z,4.70
2018-01-23T16:06:46.622Z,4.70
2018-01-23T16:09:56.925Z,4.70
2018-01-23T16:13:06.976Z,4.60
2018-01-23T16:16:17.349Z,4.60
2018-01-23T16:19:27.233Z,4.50
2018-01-23T16:22:37.218Z,4.50
2018-01-23T16:25:47.212Z,4.50
2018-01-23T16:28:57.037Z,4.40
2018-01-23T16:32:06.926Z,4.30
2018-01-23T16:35:16.737Z,4.30
2018-01-23T16:38:26.658Z,4.20
2018-01-23T16:41:36.662Z,4.10
2018-01-23T16:44:46.566Z,4.10
2018-01-23T16:47:56.488Z,4.10
2018-01-23T16:51:06.320Z,4.00
2018-01-23T16:54:17.378Z,3.90
2018-01-23T16:57:27.764Z,3.90
2018-01-23T17:00:38.633Z,3.80
2018-01-23T17:03:50.086Z,3.70
2018-01-23T17:07:00.699Z,3.70
2018-01-23T17:10:10.418Z,3.70
2018-01-23T17:13:20.154Z,3.70
2018-01-23T17:16:30.711Z,3.60
2018-01-23T17:19:41.136Z,3.70
2018-01-23T17:22:51.670Z,3.70
2018-01-23T17:26:03.118Z,3.60
2018-01-23T17:29:13.969Z,3.50
2018-01-23T17:32:24.060Z,3.50
2018-01-23T17:35:34.403Z,3.50
2018-01-23T17:38:45.521Z,3.50
2018-01-23T17:41:55.614Z,3.40
2018-01-23T17:45:06.218Z,3.50
2018-01-23T17:48:16.232Z,3.50
2018-01-23T17:51:26.142Z,3.50
2018-01-23T17:54:36.196Z,3.40
2018-01-23T17:57:46.134Z,3.40
2018-01-23T18:00:56.066Z,3.50
2018-01-23T18:04:06.676Z,3.50
2018-01-23T18:07:17.162Z,3.50
2018-01-23T18:10:27.101Z,3.60
2018-01-23T18:13:37.332Z,3.60
2018-01-23T18:16:47.665Z,3.60
2018-01-23T18:19:58.825Z,3.60
2018-01-23T18:23:09.028Z,3.60
2018-01-23T18:26:20.173Z,3.60
2018-01-23T18:29:30.066Z,3.60
2018-01-23T18:32:40.984Z,3.70
2018-01-23T18:35:51.002Z,3.70
2018-01-23T18:39:01.642Z,3.70
2018-01-23T18:42:13.168Z,3.80
2018-01-23T18:45:24.183Z,3.90
2018-01-23T18:48:35.214Z,3.90
2018-01-23T18:51:45.496Z,3.90
2018-01-23T18:54:55.810Z,3.90
2018-01-23T18:58:06.031Z,3.90
2018-01-23T19:01:15.997Z,4.00
2018-01-23T19:04:25.906Z,4.00
2018-01-23T19:07:36.378Z,4.00
2018-01-23T19:10:46.526Z,4.00
2018-01-23T19:13:56.470Z,4.10
2018-01-23T19:17:06.666Z,4.10
2018-01-23T19:20:16.937Z,4.10
2018-01-23T19:23:27.237Z,4.10
2018-01-23T19:26:37.470Z,4.20
2018-01-23T19:29:47.869Z,4.20
2018-01-23T19:32:58.154Z,4.20
2018-01-23T19:36:07.857Z,4.20
2018-01-23T19:39:17.650Z,4.20
2018-01-23T19:42:28.017Z,4.20
2018-01-23T19:45:38.565Z,4.20
2018-01-23T19:48:48.665Z,4.20
2018-01-23T19:51:58.911Z,4.20
2018-01-23T19:55:09.056Z,4.20
2018-01-23T19:58:18.981Z,4.20
2018-01-23T20:01:28.741Z,4.20
2018-01-23T20:04:38.811Z,4.30
2018-01-23T20:07:48.526Z,4.30
2018-01-23T20:10:58.590Z,4.30
2018-01-23T20:14:09.166Z,4.40
2018-01-23T20:17:19.330Z,4.40
2018-01-23T20:20:29.301Z,4.40
2018-01-23T20:23:39.245Z,4.40
2018-01-23T20:26:50.441Z,4.50
2018-01-23T20:30:00.608Z,4.50
2018-01-23T20:33:10.964Z,4.50
2018-01-23T20:36:21.132Z,4.50
2018-01-23T20:39:31.786Z,4.50
2018-01-23T20:42:42.949Z,4.60
2018-01-23T20:45:53.007Z,4.50
2018-01-23T20:49:03.167Z,4.50
2018-01-23T20:52:13.066Z,4.50
2018-01-23T20:55:23.407Z,4.50
2018-01-23T20:58:33.230Z,4.60
2018-01-23T21:01:42.959Z,4.50
2018-01-23T21:04:52.911Z,4.50
2018-01-23T21:08:02.928Z,4.50
2018-01-23T21:11:12.683Z,4.50
2018-01-23T21:14:22.629Z,4.50
2018-01-23T21:17:33.343Z,4.50
2018-01-23T21:20:43.678Z,4.50
2018-01-23T21:23:54.415Z,4.50
2018-01-23T21:27:03.945Z,4.50
2018-01-23T21:30:14.645Z,4.50
2018-01-23T21:33:25.293Z,4.50
2018-01-23T21:36:35.888Z,4.60
2018-01-23T21:39:46.214Z,4.50
2018-01-23T21:42:56.075Z,4.60
2018-01-23T21:46:07.313Z,4.60
2018-01-23T21:49:18.110Z,4.60
2018-01-23T21:52:28.244Z,4.60
2018-01-23T21:55:39.857Z,4.70
2018-01-23T21:58:50.252Z,4.70
2018-01-23T22:01:59.954Z,4.70
2018-01-23T22:05:10.002Z,4.70
2018-01-23T22:08:20.693Z,4.70
2018-01-23T22:11:30.564Z,4.60
2018-01-23T22:14:40.796Z,4.70
2018-01-23T22:17:50.739Z,4.70
2018-01-23T22:21:00.665Z,4.70
2018-01-23T22:24:11.500Z,4.80
2018-01-23T22:27:21.640Z,4.80
2018-01-23T22:30:31.527Z,4.80
2018-01-23T22:33:41.387Z,4.80
2018-01-23T22:36:51.192Z,4.80
2018-01-23T22:40:01.247Z,4.70
2018-01-23T22:43:11.211Z,4.70
2018-01-23T22:46:21.933Z,4.70
2018-01-23T22:49:32.122Z,4.70
2018-01-23T22:52:42.092Z,4.70
2018-01-23T22:55:52.343Z,4.70
2018-01-23T22:59:02.722Z,4.70
2018-01-23T23:02:12.942Z,4.60
2018-01-23T23:05:23.428Z,4.60
2018-01-23T23:08:34.217Z,4.60
2018-01-23T23:11:44.724Z,4.70
2018-01-23T23:14:55.262Z,4.70
2018-01-23T23:18:05.764Z,4.60
2018-01-23T23:21:16.364Z,4.60
2018-01-23T23:24:26.544Z,4.70
2018-01-23T23:27:36.561Z,4.70
2018-01-23T23:30:46.400Z,4.70
2018-01-23T23:33:56.195Z,4.70
2018-01-23T23:37:05.906Z,4.70
2018-01-23T23:40:15.856Z,4.70
2018-01-23T23:43:26.596Z,4.80
2018-01-23T23:49:52.700Z,4.80
2018-01-23T23:53:02.610Z,4.80
2018-01-23T23:56:12.527Z,4.80
2018-01-23T23:59:22.437Z,4.80
